Central Oregon RPC :: LAKEVIEW, OR B

liberation: 2020-05-23  07:15     latitude: 42.184008     longitude: -120.572669 107 birds
# LOFT PRING MILES ARRIVAL SPEED ToWin
1 RUETER FAMILY LOFT AU19-CORP-5463 179.062 2020-05-23 10:29:05.997 1623.647 00:00:00
2 RUETER FAMILY LOFT AU19-CORP-5408 179.062 2020-05-23 10:29:15.025 1622.389 00:00:09
3 RUETER FAMILY LOFT AU18-CORP-2726 179.062 2020-05-23 10:29:59.102 1616.277 00:00:53
4 RUETER FAMILY LOFT AU19-CORP-5405 179.062 2020-05-23 10:30:38.834 1610.806 00:01:33
5 ROCKY TOP AU19-ARPU-29015 144.546 2020-05-23 09:53:18.389 1607.020 00:01:37
6 RUETER FAMILY LOFT AU19-CORP-5293 179.062 2020-05-23 10:31:56.011 1600.285 00:02:50
7 STEELE LOFT AU19-CORP-4024 151.458 2020-05-23 10:02:27.786 1591.788 00:03:17
8 STEELE LOFT AU19-CORP-4002 151.458 2020-05-23 10:02:31.770 1591.157 00:03:21
9 ROCKY TOP AU19-CORP-4490 144.546 2020-05-23 09:55:11.840 1588.051 00:03:31
10 STEELE LOFT AU19-JEDD-1973 151.458 2020-05-23 10:03:33.973 1581.371 00:04:23
11 STEELE LOFT AU16-MTH-11012 151.458 2020-05-23 10:03:40.409 1580.365 00:04:30
12 TOPIGEONUSA AU19-CORP-5124 151.225 2020-05-23 10:03:47.696 1576.798 00:04:52
13 TOPIGEONUSA AU19-CORP-4938 151.225 2020-05-23 10:03:48.103 1576.734 00:04:53
14 TOPIGEONUSA AU18-CORP-4205 151.225 2020-05-23 10:03:54.009 1575.816 00:04:59
15 RUETER FAMILY LOFT AU19-CORP-5291 179.062 2020-05-23 10:35:34.338 1571.253 00:06:28
16 ROCKY TOP AU19-CORP-4477 144.546 2020-05-23 09:56:56.856 1570.888 00:05:16
17 RUETER FAMILY LOFT AU19-CORP-5488 179.062 2020-05-23 10:35:47.037 1569.596 00:06:41
18 ROCKY TOP AU19-ARPU-29027 144.546 2020-05-23 09:57:11.799 1568.476 00:05:31
19 RUETER FAMILY LOFT AU17-CORP-0589 179.062 2020-05-23 10:36:01.220 1567.751 00:06:55
20 ROCKY TOP AU18-CORP-3386 144.546 2020-05-23 09:57:18.766 1567.354 00:05:38
21 RUETER FAMILY LOFT AU18-CORP-2696 179.062 2020-05-23 10:36:09.946 1566.617 00:07:04
22 ROCKY TOP AU18-CORP-3362 144.546 2020-05-23 09:57:27.578 1565.937 00:05:46
23 RUETER FAMILY LOFT AU17-CORP-0425 179.062 2020-05-23 10:36:17.447 1565.644 00:07:11
24 RUETER FAMILY LOFT AU19-CORP-5259 179.062 2020-05-23 10:36:24.418 1564.741 00:07:18
25 ROCKY TOP AU19-CORP-4473 144.546 2020-05-23 09:57:43.676 1563.356 00:06:03
26 ROCKY TOP AU19-ARPU-29022 144.546 2020-05-23 09:57:44.606 1563.207 00:06:03
27 TIM GRAVES AU15-CORP-3096 143.361 2020-05-23 09:56:36.747 1561.241 00:06:13
28 RUETER FAMILY LOFT AU17-CORP-0449 179.062 2020-05-23 10:37:26.716 1556.716 00:08:21
29 RUETER FAMILY LOFT AU18-CORP-2678 179.062 2020-05-23 10:37:29.722 1556.331 00:08:24
30 RUETER FAMILY LOFT AU19-CORP-5344 179.062 2020-05-23 10:37:35.934 1555.535 00:08:30
31 RUETER FAMILY LOFT AU17-CORP-0513 179.062 2020-05-23 10:37:50.027 1553.734 00:08:44
32 ROCKY TOP AU18-CORP-3337 144.546 2020-05-23 09:58:59.253 1551.347 00:07:18
33 ROCKY TOP AU19-CORP-4420 144.546 2020-05-23 09:59:31.694 1546.249 00:07:51
34 ROCKY TOP AU19-JEDD-0504 144.546 2020-05-23 09:59:36.374 1545.516 00:07:55
35 TIM GRAVES AU15-AA-14507 143.361 2020-05-23 09:58:30.448 1543.146 00:08:06
36 RUETER FAMILY LOFT AU18-CORP-2728 179.062 2020-05-23 10:40:33.051 1533.196 00:11:27
37 RUETER FAMILY LOFT AU18-CORP-2721 179.062 2020-05-23 10:40:35.137 1532.937 00:11:29
38 RUETER FAMILY LOFT AU19-CORP-5435 179.062 2020-05-23 10:40:54.390 1530.548 00:11:48
39 RUETER FAMILY LOFT AU19-CORP-5286 179.062 2020-05-23 10:40:55.255 1530.441 00:11:49
40 RUETER FAMILY LOFT AU19-CORP-5290 179.062 2020-05-23 10:40:55.815 1530.371 00:11:50
41 RUETER FAMILY LOFT AU19-CORP-5377 179.062 2020-05-23 10:41:16.690 1527.790 00:12:11
42 RUETER FAMILY LOFT AU18-CORP-2774 179.062 2020-05-23 10:41:18.218 1527.602 00:12:12
43 RUETER FAMILY LOFT AU19-CORP-5258 179.062 2020-05-23 10:41:19.523 1527.441 00:12:14
44 RUETER FAMILY LOFT AU19-CORP-5261 179.062 2020-05-23 10:41:24.021 1526.886 00:12:18
45 RUETER FAMILY LOFT AU18-CORP-2625 179.062 2020-05-23 10:41:38.059 1525.157 00:12:32
46 RUETER FAMILY LOFT AU19-CORP-5250 179.062 2020-05-23 10:41:54.279 1523.164 00:12:48
47 RUETER FAMILY LOFT AU18-CORP-2684 179.062 2020-05-23 10:42:22.619 1519.695 00:13:17
48 ROCKY TOP AU18-CORP-3371 144.546 2020-05-23 10:02:25.569 1519.486 00:10:44
49 TIM GRAVES AU19-CORP-4220 143.361 2020-05-23 10:01:12.545 1518.064 00:10:48
50 AMERICAN LOFT AU19-CORP-4635 149.238 2020-05-23 10:08:02.692 1517.868 00:11:16
51 AMERICAN LOFT AU19-CORP-4751 149.238 2020-05-23 10:08:04.970 1517.535 00:11:19
52 TIM GRAVES AU14-TAR-0426 143.361 2020-05-23 10:01:17.108 1517.369 00:10:53
53 STEELE LOFT AU14-CORP-1062 151.458 2020-05-23 10:10:40.868 1517.327 00:11:30
54 ROCKY TOP AU19-CORP-4474 144.546 2020-05-23 10:02:51.143 1515.627 00:11:10
55 TIM GRAVES AU19-CORP-4211 143.361 2020-05-23 10:01:43.086 1513.429 00:11:19
56 TIM GRAVES AU17-CORP-0834 143.361 2020-05-23 10:01:45.959 1512.994 00:11:22
57 TOPIGEONUSA AU18-CORP-4272 151.225 2020-05-23 10:11:45.629 1505.741 00:12:50
58 AMERICAN LOFT AU19-CORP-4714 149.238 2020-05-23 10:10:05.177 1500.170 00:13:19
59 TOPIGEONUSA AU19-CORP-4908 151.225 2020-05-23 10:12:54.320 1496.051 00:13:59
60 AMERICAN LOFT AU19-CORP-4652 149.238 2020-05-23 10:10:52.311 1493.469 00:14:06
61 HENDRICKSON FAMILY LOFT AU19-CORP-4367 149.32 2020-05-23 10:12:08.941 1483.516 00:15:17
62 TOPIGEONUSA AU19-CORP-5136 151.225 2020-05-23 10:14:26.608 1483.228 00:15:31
63 AMERICAN LOFT AU19-CORP-4673 149.238 2020-05-23 10:12:14.505 1481.926 00:15:28
64 AMERICAN LOFT AU19-CORP-4769 149.238 2020-05-23 10:12:15.538 1481.782 00:15:29
65 RUETER FAMILY LOFT AU19-CORP-5265 179.062 2020-05-23 10:47:53.778 1480.297 00:18:48
66 AMERICAN LOFT AU19-CORP-4647 149.238 2020-05-23 10:12:53.931 1476.453 00:16:08
67 HENDRICKSON FAMILY LOFT AU19-CORP-4379 149.32 2020-05-23 10:13:51.012 1469.405 00:16:59
68 HENDRICKSON FAMILY LOFT AU19-CORP-4353 149.32 2020-05-23 10:14:12.800 1466.428 00:17:21
69 HENDRICKSON FAMILY LOFT AU19-ARPU-29011 149.32 2020-05-23 10:14:38.357 1462.951 00:17:47
70 HENDRICKSON FAMILY LOFT AU18-CORP-4010 149.32 2020-05-23 10:14:41.931 1462.466 00:17:50
71 AMERICAN LOFT AU19-CORP-4699 149.238 2020-05-23 10:15:11.713 1457.637 00:18:25
72 HENDRICKSON FAMILY LOFT AU19-CORP-4370 149.32 2020-05-23 10:15:20.643 1457.234 00:18:29
73 ROCKY TOP AU19-CORP-4421 144.546 2020-05-23 10:10:54.858 1446.168 00:19:14
74 TIM GRAVES AU15-CORP-3070 143.361 2020-05-23 10:09:37.257 1444.935 00:19:13
75 TIM GRAVES AU17-SWWR-7335 143.361 2020-05-23 10:09:46.573 1443.652 00:19:23
76 RUETER FAMILY LOFT AU18-CORP-2777 179.062 2020-05-23 10:53:27.470 1442.611 00:24:21
77 ROCKY TOP AU18-CORP-3350 144.546 2020-05-23 10:11:58.132 1437.550 00:20:17
78 ROCKY TOP AU18-CORP-3311 144.546 2020-05-23 10:12:02.056 1437.019 00:20:21
79 ROCKY TOP AU18-CORP-3335 144.546 2020-05-23 10:12:26.963 1433.657 00:20:46
80 STEELE LOFT AU19-AVI-19525 151.458 2020-05-23 10:21:47.600 1427.062 00:22:37
81 AMERICAN LOFT AU19-CORP-4622 149.238 2020-05-23 10:20:17.627 1417.528 00:23:31
82 HENDRICKSON FAMILY LOFT AU19-ARPU-29017 149.32 2020-05-23 10:22:51.560 1398.937 00:26:00
83 HENDRICKSON FAMILY LOFT AU19-CORP-4369 149.32 2020-05-23 10:23:45.263 1392.304 00:26:54
84 RUETER FAMILY LOFT AU18-CORP-2651 179.062 2020-05-23 11:02:19.078 1386.383 00:33:13
85 ROCKY TOP AU19-CORP-4431 144.546 2020-05-23 10:19:30.609 1378.795 00:27:49
86 STEELE LOFT AU17-CAPT-0094 151.458 2020-05-23 10:28:35.336 1376.968 00:29:25
87 HENDRICKSON FAMILY LOFT AU19-CORP-4362 149.32 2020-05-23 10:26:57.955 1369.011 00:30:06
88 TIM GRAVES AU14-CORP-0072 143.361 2020-05-23 10:19:23.091 1368.420 00:28:59
89 TIM GRAVES AU17-CORP-2022 143.361 2020-05-23 10:19:40.255 1366.301 00:29:16
90 TIM GRAVES AU19-CORP-4203 143.361 2020-05-23 10:19:43.258 1365.930 00:29:19
91 STEELE LOFT AU17-PNW-5212 151.458 2020-05-23 10:32:36.086 1349.007 00:33:25
92 TOPIGEONUSA AU19-CORP-4956 151.225 2020-05-23 10:37:36.587 1313.636 00:38:41
93 ROCKY TOP AU14-CORP-1542 144.546 2020-05-23 10:30:19.993 1302.398 00:38:39
94 AMERICAN LOFT AU19-CORP-4746 149.238 2020-05-23 10:39:50.968 1282.206 00:43:05
95 AMERICAN LOFT AU18-CORP-2549 149.238 2020-05-23 10:41:43.174 1270.606 00:44:57
96 STEELE LOFT AU15-CORP-3873 151.458 2020-05-23 10:48:41.333 1247.448 00:49:31
97 TIM GRAVES AU19-CORP-4232 143.361 2020-05-23 10:43:55.522 1207.685 00:53:31
98 ROCKY TOP AU18-CORP-3385 144.546 2020-05-23 11:15:54.319 1056.023 01:24:13
99 AMERICAN LOFT AU19-CORP-4735 149.238 2020-05-23 11:43:08.540 979.551 01:46:22
100 RUETER FAMILY LOFT AU19-CORP-5339 179.062 2020-05-23 13:28:17.076 844.261 02:59:11
101 TIM GRAVES AU19-CORP-4223 143.361 2020-05-23 12:36:13.446 785.483 02:45:49
RUETER FAMILY LOFT AU19-CORP-5251 0 0000-00-00 00:00:00.000 0.000 00:00:00
RUETER FAMILY LOFT AU19-CORP-5296 0 0000-00-00 00:00:00.000 0.000 00:00:00
RUETER FAMILY LOFT AU19-CORP-5393 0 0000-00-00 00:00:00.000 0.000 00:00:00
TIM GRAVES AU15-AA-14510 0 0000-00-00 00:00:00.000 0.000 00:00:00
TIM GRAVES AU16-CORP-6702 0 0000-00-00 00:00:00.000 0.000 00:00:00
TIM GRAVES AU19-CORP-4213 0 0000-00-00 00:00:00.000 0.000 00:00:00